In Rescue
 
Open Full Screen Window  High Contrast Mode
Wind Gusting 00 knots
10
January 20, 2021 3:12 PM CST
Weather Information
Wind Direction
  240 °
Wind Speed
  10 kt (12 mph)
Wind Gust
  00 kt (0 mph)
Altimeter
29.55 in
Visibility
10 SM
Temperature
02° C
36° F
Dewpoint
-04° C
25° F
Humidity
65%
1hr Rain Fall
00.00 in.
24hr Rain Fall
00.00 in.
Sky Condition
Clear
VFR

METAR K21D 202112Z AUTO 24010KT 10SM CLR 02/M04 A2955 RMK AO2

FAA Disclaimer: The data displayed is for advisory purposes only and is not to be used for flight planning or operations.